sensor_id;sensor_type;location;lat;lon;timestamp;temperature;humidity
60313;DHT22;46158;52.850;6.970;2023-12-28T00:00:26;15.00;78.50
60313;DHT22;46158;52.850;6.970;2023-12-28T00:02:52;15.00;78.40
60313;DHT22;46158;52.850;6.970;2023-12-28T00:05:17;15.00;78.40
60313;DHT22;46158;52.850;6.970;2023-12-28T00:07:43;15.00;78.40
60313;DHT22;46158;52.850;6.970;2023-12-28T00:10:09;15.00;78.40
60313;DHT22;46158;52.850;6.970;2023-12-28T00:12:35;15.00;78.30
60313;DHT22;46158;52.850;6.970;2023-12-28T00:15:00;15.00;78.30
60313;DHT22;46158;52.850;6.970;2023-12-28T00:17:26;15.00;78.20
60313;DHT22;46158;52.850;6.970;2023-12-28T00:19:51;15.00;78.10
60313;DHT22;46158;52.850;6.970;2023-12-28T00:22:17;14.90;78.00
60313;DHT22;46158;52.850;6.970;2023-12-28T00:24:43;14.90;78.00
60313;DHT22;46158;52.850;6.970;2023-12-28T00:27:08;14.90;78.00
60313;DHT22;46158;52.850;6.970;2023-12-28T00:29:34;14.90;78.00
60313;DHT22;46158;52.850;6.970;2023-12-28T00:32:05;14.90;78.00
60313;DHT22;46158;52.850;6.970;2023-12-28T00:34:30;14.90;77.90
60313;DHT22;46158;52.850;6.970;2023-12-28T00:36:56;14.90;77.90
60313;DHT22;46158;52.850;6.970;2023-12-28T00:39:22;14.90;77.90
60313;DHT22;46158;52.850;6.970;2023-12-28T00:41:48;14.90;77.90
60313;DHT22;46158;52.850;6.970;2023-12-28T00:44:13;14.90;77.80
60313;DHT22;46158;52.850;6.970;2023-12-28T00:46:39;14.90;77.80
60313;DHT22;46158;52.850;6.970;2023-12-28T00:49:05;14.90;77.70
60313;DHT22;46158;52.850;6.970;2023-12-28T00:51:30;14.80;77.70
60313;DHT22;46158;52.850;6.970;2023-12-28T00:53:56;14.80;77.60
60313;DHT22;46158;52.850;6.970;2023-12-28T00:56:21;14.80;77.70
60313;DHT22;46158;52.850;6.970;2023-12-28T00:58:47;14.80;77.70
60313;DHT22;46158;52.850;6.970;2023-12-28T01:01:13;14.80;77.60
60313;DHT22;46158;52.850;6.970;2023-12-28T01:03:38;14.80;77.70
60313;DHT22;46158;52.850;6.970;2023-12-28T01:06:05;14.80;77.60
60313;DHT22;46158;52.850;6.970;2023-12-28T01:08:30;14.70;77.50
60313;DHT22;46158;52.850;6.970;2023-12-28T01:10:56;14.70;77.50
60313;DHT22;46158;52.850;6.970;2023-12-28T01:13:22;14.70;77.50
60313;DHT22;46158;52.850;6.970;2023-12-28T01:15:47;14.70;77.50
60313;DHT22;46158;52.850;6.970;2023-12-28T01:18:13;14.70;77.50
60313;DHT22;46158;52.850;6.970;2023-12-28T01:20:38;14.70;77.50
60313;DHT22;46158;52.850;6.970;2023-12-28T01:23:04;14.70;77.40
60313;DHT22;46158;52.850;6.970;2023-12-28T01:25:29;14.70;77.50
60313;DHT22;46158;52.850;6.970;2023-12-28T01:27:55;14.70;77.50
60313;DHT22;46158;52.850;6.970;2023-12-28T01:30:20;14.70;77.40
60313;DHT22;46158;52.850;6.970;2023-12-28T01:32:46;14.60;77.40
60313;DHT22;46158;52.850;6.970;2023-12-28T01:35:11;14.60;77.40
60313;DHT22;46158;52.850;6.970;2023-12-28T01:37:37;14.60;77.40
60313;DHT22;46158;52.850;6.970;2023-12-28T01:40:03;14.60;77.40
60313;DHT22;46158;52.850;6.970;2023-12-28T01:42:29;14.60;77.30
60313;DHT22;46158;52.850;6.970;2023-12-28T01:44:56;14.60;77.30
60313;DHT22;46158;52.850;6.970;2023-12-28T01:47:24;14.60;77.30
60313;DHT22;46158;52.850;6.970;2023-12-28T01:49:50;14.60;77.30
60313;DHT22;46158;52.850;6.970;2023-12-28T01:52:15;14.60;77.30
60313;DHT22;46158;52.850;6.970;2023-12-28T01:54:41;14.60;77.30
60313;DHT22;46158;52.850;6.970;2023-12-28T01:57:07;14.60;77.30
60313;DHT22;46158;52.850;6.970;2023-12-28T01:59:33;14.50;77.30
60313;DHT22;46158;52.850;6.970;2023-12-28T02:01:59;14.60;77.40
60313;DHT22;46158;52.850;6.970;2023-12-28T02:04:25;14.50;77.30
60313;DHT22;46158;52.850;6.970;2023-12-28T02:06:59;14.50;77.30
60313;DHT22;46158;52.850;6.970;2023-12-28T02:09:25;14.50;77.20
60313;DHT22;46158;52.850;6.970;2023-12-28T02:11:51;14.50;77.30
60313;DHT22;46158;52.850;6.970;2023-12-28T02:14:17;14.50;77.20
60313;DHT22;46158;52.850;6.970;2023-12-28T02:16:51;14.50;77.30
60313;DHT22;46158;52.850;6.970;2023-12-28T02:19:25;14.50;77.20
60313;DHT22;46158;52.850;6.970;2023-12-28T02:21:59;14.50;77.30
60313;DHT22;46158;52.850;6.970;2023-12-28T02:24:25;14.40;77.20
60313;DHT22;46158;52.850;6.970;2023-12-28T02:26:50;14.40;77.20
60313;DHT22;46158;52.850;6.970;2023-12-28T02:29:16;14.40;77.20
60313;DHT22;46158;52.850;6.970;2023-12-28T02:31:48;14.40;77.20
60313;DHT22;46158;52.850;6.970;2023-12-28T02:34:21;14.40;77.20
60313;DHT22;46158;52.850;6.970;2023-12-28T02:36:50;14.40;77.20
60313;DHT22;46158;52.850;6.970;2023-12-28T02:39:17;14.40;77.20
60313;DHT22;46158;52.850;6.970;2023-12-28T02:41:44;14.40;77.20
60313;DHT22;46158;52.850;6.970;2023-12-28T02:44:10;14.40;77.20
60313;DHT22;46158;52.850;6.970;2023-12-28T02:46:36;14.40;77.20
60313;DHT22;46158;52.850;6.970;2023-12-28T02:49:01;14.30;77.10
60313;DHT22;46158;52.850;6.970;2023-12-28T02:51:27;14.30;77.20
60313;DHT22;46158;52.850;6.970;2023-12-28T02:53:52;14.40;77.20
60313;DHT22;46158;52.850;6.970;2023-12-28T02:56:18;14.30;77.10
60313;DHT22;46158;52.850;6.970;2023-12-28T02:58:44;14.30;77.10
60313;DHT22;46158;52.850;6.970;2023-12-28T03:01:09;14.30;77.10
60313;DHT22;46158;52.850;6.970;2023-12-28T03:03:35;14.30;77.20
60313;DHT22;46158;52.850;6.970;2023-12-28T03:06:00;14.30;77.10
60313;DHT22;46158;52.850;6.970;2023-12-28T03:08:26;14.30;77.10
60313;DHT22;46158;52.850;6.970;2023-12-28T03:10:52;14.30;77.10
60313;DHT22;46158;52.850;6.970;2023-12-28T03:13:18;14.30;77.10
60313;DHT22;46158;52.850;6.970;2023-12-28T03:15:44;14.20;77.00
60313;DHT22;46158;52.850;6.970;2023-12-28T03:18:09;14.20;77.00
60313;DHT22;46158;52.850;6.970;2023-12-28T03:20:35;14.30;77.10
60313;DHT22;46158;52.850;6.970;2023-12-28T03:23:00;14.30;77.00
60313;DHT22;46158;52.850;6.970;2023-12-28T03:25:26;14.20;77.00
60313;DHT22;46158;52.850;6.970;2023-12-28T03:27:51;14.20;77.00
60313;DHT22;46158;52.850;6.970;2023-12-28T03:30:17;14.20;77.00
60313;DHT22;46158;52.850;6.970;2023-12-28T03:32:42;14.20;77.00
60313;DHT22;46158;52.850;6.970;2023-12-28T03:35:08;14.20;77.00
60313;DHT22;46158;52.850;6.970;2023-12-28T03:37:34;14.20;77.00
60313;DHT22;46158;52.850;6.970;2023-12-28T03:40:00;14.20;77.00
60313;DHT22;46158;52.850;6.970;2023-12-28T03:42:26;14.20;77.00
60313;DHT22;46158;52.850;6.970;2023-12-28T03:44:51;14.20;77.00
60313;DHT22;46158;52.850;6.970;2023-12-28T03:47:17;14.20;77.00
60313;DHT22;46158;52.850;6.970;2023-12-28T03:49:43;14.20;77.00
60313;DHT22;46158;52.850;6.970;2023-12-28T03:52:11;14.10;76.90
60313;DHT22;46158;52.850;6.970;2023-12-28T03:54:37;14.10;76.90
60313;DHT22;46158;52.850;6.970;2023-12-28T03:57:03;14.10;77.00
60313;DHT22;46158;52.850;6.970;2023-12-28T03:59:28;14.10;76.90
60313;DHT22;46158;52.850;6.970;2023-12-28T04:01:54;14.10;76.90
60313;DHT22;46158;52.850;6.970;2023-12-28T04:04:19;14.10;76.90
60313;DHT22;46158;52.850;6.970;2023-12-28T04:06:45;14.10;76.80
60313;DHT22;46158;52.850;6.970;2023-12-28T04:09:13;14.10;76.90
60313;DHT22;46158;52.850;6.970;2023-12-28T04:11:39;14.10;76.90
60313;DHT22;46158;52.850;6.970;2023-12-28T04:14:05;14.10;76.80
60313;DHT22;46158;52.850;6.970;2023-12-28T04:16:31;14.10;76.80
60313;DHT22;46158;52.850;6.970;2023-12-28T04:18:57;14.00;76.80
60313;DHT22;46158;52.850;6.970;2023-12-28T04:21:23;14.00;76.70
60313;DHT22;46158;52.850;6.970;2023-12-28T04:23:48;14.00;76.70
60313;DHT22;46158;52.850;6.970;2023-12-28T04:26:14;14.00;76.70
60313;DHT22;46158;52.850;6.970;2023-12-28T04:28:42;14.00;76.80
60313;DHT22;46158;52.850;6.970;2023-12-28T04:31:08;14.00;76.70
60313;DHT22;46158;52.850;6.970;2023-12-28T04:33:34;14.00;76.70
60313;DHT22;46158;52.850;6.970;2023-12-28T04:36:03;14.00;76.70
60313;DHT22;46158;52.850;6.970;2023-12-28T04:38:31;14.00;76.70
60313;DHT22;46158;52.850;6.970;2023-12-28T04:40:58;14.00;76.70
60313;DHT22;46158;52.850;6.970;2023-12-28T04:43:23;14.00;76.70
60313;DHT22;46158;52.850;6.970;2023-12-28T04:45:50;14.00;76.80
60313;DHT22;46158;52.850;6.970;2023-12-28T04:48:16;14.00;76.70
60313;DHT22;46158;52.850;6.970;2023-12-28T04:50:46;13.90;76.70
60313;DHT22;46158;52.850;6.970;2023-12-28T04:53:12;14.00;76.80
60313;DHT22;46158;52.850;6.970;2023-12-28T04:55:38;13.90;76.70
60313;DHT22;46158;52.850;6.970;2023-12-28T04:58:03;13.90;76.70
60313;DHT22;46158;52.850;6.970;2023-12-28T05:00:29;13.90;76.70
60313;DHT22;46158;52.850;6.970;2023-12-28T05:02:54;13.90;76.70
60313;DHT22;46158;52.850;6.970;2023-12-28T05:05:20;13.90;76.70
60313;DHT22;46158;52.850;6.970;2023-12-28T05:07:46;13.90;76.70
60313;DHT22;46158;52.850;6.970;2023-12-28T05:10:11;13.90;76.70
60313;DHT22;46158;52.850;6.970;2023-12-28T05:12:37;13.90;76.70
60313;DHT22;46158;52.850;6.970;2023-12-28T05:15:03;13.90;76.70
60313;DHT22;46158;52.850;6.970;2023-12-28T05:17:29;13.90;76.70
60313;DHT22;46158;52.850;6.970;2023-12-28T05:19:54;13.90;76.70
60313;DHT22;46158;52.850;6.970;2023-12-28T05:22:21;13.90;76.70
60313;DHT22;46158;52.850;6.970;2023-12-28T05:24:47;13.80;76.70
60313;DHT22;46158;52.850;6.970;2023-12-28T05:27:12;13.80;76.60
60313;DHT22;46158;52.850;6.970;2023-12-28T05:29:38;13.80;76.60
60313;DHT22;46158;52.850;6.970;2023-12-28T05:32:04;13.80;76.60
60313;DHT22;46158;52.850;6.970;2023-12-28T05:34:30;13.80;76.60
60313;DHT22;46158;52.850;6.970;2023-12-28T05:36:56;13.80;76.60
60313;DHT22;46158;52.850;6.970;2023-12-28T05:39:22;13.80;76.60
60313;DHT22;46158;52.850;6.970;2023-12-28T05:41:47;13.80;76.60
60313;DHT22;46158;52.850;6.970;2023-12-28T05:44:16;13.80;76.60
60313;DHT22;46158;52.850;6.970;2023-12-28T05:46:41;13.80;76.60
60313;DHT22;46158;52.850;6.970;2023-12-28T05:49:07;13.80;76.60
60313;DHT22;46158;52.850;6.970;2023-12-28T05:51:41;13.80;76.60
60313;DHT22;46158;52.850;6.970;2023-12-28T05:54:07;13.80;76.50
60313;DHT22;46158;52.850;6.970;2023-12-28T05:56:33;13.80;76.60
60313;DHT22;46158;52.850;6.970;2023-12-28T05:58:59;13.80;77.30
60313;DHT22;46158;52.850;6.970;2023-12-28T06:01:24;13.80;76.60
60313;DHT22;46158;52.850;6.970;2023-12-28T06:03:50;13.80;76.60
60313;DHT22;46158;52.850;6.970;2023-12-28T06:06:18;13.70;76.50
60313;DHT22;46158;52.850;6.970;2023-12-28T06:08:44;13.70;76.50
60313;DHT22;46158;52.850;6.970;2023-12-28T06:11:10;13.70;76.50
60313;DHT22;46158;52.850;6.970;2023-12-28T06:13:35;13.70;76.50
60313;DHT22;46158;52.850;6.970;2023-12-28T06:16:01;13.70;76.60
60313;DHT22;46158;52.850;6.970;2023-12-28T06:18:27;13.70;76.50
60313;DHT22;46158;52.850;6.970;2023-12-28T06:20:52;13.70;76.50
60313;DHT22;46158;52.850;6.970;2023-12-28T06:23:18;13.70;76.50
60313;DHT22;46158;52.850;6.970;2023-12-28T06:25:43;13.70;76.50
60313;DHT22;46158;52.850;6.970;2023-12-28T06:28:09;13.70;76.50
60313;DHT22;46158;52.850;6.970;2023-12-28T06:30:35;13.70;76.50
60313;DHT22;46158;52.850;6.970;2023-12-28T06:33:00;13.70;76.50
60313;DHT22;46158;52.850;6.970;2023-12-28T06:35:26;13.70;76.50
60313;DHT22;46158;52.850;6.970;2023-12-28T06:37:51;13.70;76.50
60313;DHT22;46158;52.850;6.970;2023-12-28T06:40:17;13.70;76.50
60313;DHT22;46158;52.850;6.970;2023-12-28T06:42:42;13.60;76.50
60313;DHT22;46158;52.850;6.970;2023-12-28T06:45:09;13.70;76.60
60313;DHT22;46158;52.850;6.970;2023-12-28T06:47:35;13.60;76.50
60313;DHT22;46158;52.850;6.970;2023-12-28T06:50:01;13.60;76.50
60313;DHT22;46158;52.850;6.970;2023-12-28T06:52:27;13.60;76.40
60313;DHT22;46158;52.850;6.970;2023-12-28T06:54:52;13.60;76.50
60313;DHT22;46158;52.850;6.970;2023-12-28T06:57:18;13.60;76.40
60313;DHT22;46158;52.850;6.970;2023-12-28T06:59:44;13.60;76.40
60313;DHT22;46158;52.850;6.970;2023-12-28T07:02:10;13.60;76.40
60313;DHT22;46158;52.850;6.970;2023-12-28T07:04:35;13.60;76.40
60313;DHT22;46158;52.850;6.970;2023-12-28T07:07:01;13.60;76.40
60313;DHT22;46158;52.850;6.970;2023-12-28T07:09:27;13.60;76.40
60313;DHT22;46158;52.850;6.970;2023-12-28T07:11:52;13.60;76.50
60313;DHT22;46158;52.850;6.970;2023-12-28T07:14:18;13.60;76.40
60313;DHT22;46158;52.850;6.970;2023-12-28T07:16:43;13.60;76.50
60313;DHT22;46158;52.850;6.970;2023-12-28T07:19:09;13.60;76.40
60313;DHT22;46158;52.850;6.970;2023-12-28T07:21:35;13.60;76.50
60313;DHT22;46158;52.850;6.970;2023-12-28T07:24:00;13.60;76.50
60313;DHT22;46158;52.850;6.970;2023-12-28T07:26:26;13.50;76.40
60313;DHT22;46158;52.850;6.970;2023-12-28T07:28:51;13.50;76.40
60313;DHT22;46158;52.850;6.970;2023-12-28T07:31:25;13.50;76.40
60313;DHT22;46158;52.850;6.970;2023-12-28T07:33:50;13.50;76.40
60313;DHT22;46158;52.850;6.970;2023-12-28T07:36:16;13.50;76.40
60313;DHT22;46158;52.850;6.970;2023-12-28T07:38:43;13.50;76.40
60313;DHT22;46158;52.850;6.970;2023-12-28T07:41:09;13.50;76.50
60313;DHT22;46158;52.850;6.970;2023-12-28T07:43:35;13.50;76.60
60313;DHT22;46158;52.850;6.970;2023-12-28T07:46:01;13.60;76.80
60313;DHT22;46158;52.850;6.970;2023-12-28T07:48:27;13.50;76.80
60313;DHT22;46158;52.850;6.970;2023-12-28T07:50:55;13.60;77.10
60313;DHT22;46158;52.850;6.970;2023-12-28T07:53:21;13.60;77.30
60313;DHT22;46158;52.850;6.970;2023-12-28T07:55:46;13.60;77.40
60313;DHT22;46158;52.850;6.970;2023-12-28T07:58:12;13.60;77.60
60313;DHT22;46158;52.850;6.970;2023-12-28T08:00:38;13.60;77.80
60313;DHT22;46158;52.850;6.970;2023-12-28T08:03:04;13.70;78.10
60313;DHT22;46158;52.850;6.970;2023-12-28T08:05:29;13.70;78.20
60313;DHT22;46158;52.850;6.970;2023-12-28T08:07:55;13.80;78.40
60313;DHT22;46158;52.850;6.970;2023-12-28T08:10:20;13.80;78.50
60313;DHT22;46158;52.850;6.970;2023-12-28T08:12:46;13.80;78.70
60313;DHT22;46158;52.850;6.970;2023-12-28T08:15:12;13.80;78.80
60313;DHT22;46158;52.850;6.970;2023-12-28T08:17:37;13.90;78.90
60313;DHT22;46158;52.850;6.970;2023-12-28T08:20:05;13.90;79.00
60313;DHT22;46158;52.850;6.970;2023-12-28T08:22:31;14.00;79.80
60313;DHT22;46158;52.850;6.970;2023-12-28T08:24:56;14.00;79.20
60313;DHT22;46158;52.850;6.970;2023-12-28T08:27:23;14.00;79.20
60313;DHT22;46158;52.850;6.970;2023-12-28T08:29:49;14.10;79.40
60313;DHT22;46158;52.850;6.970;2023-12-28T08:32:14;14.10;79.40
60313;DHT22;46158;52.850;6.970;2023-12-28T08:34:40;14.10;79.60
60313;DHT22;46158;52.850;6.970;2023-12-28T08:37:06;14.20;79.90
60313;DHT22;46158;52.850;6.970;2023-12-28T08:39:31;14.20;80.10
60313;DHT22;46158;52.850;6.970;2023-12-28T08:41:57;14.30;80.30
60313;DHT22;46158;52.850;6.970;2023-12-28T08:44:23;14.30;80.50
60313;DHT22;46158;52.850;6.970;2023-12-28T08:46:49;14.30;80.60
60313;DHT22;46158;52.850;6.970;2023-12-28T08:49:14;14.40;80.80
60313;DHT22;46158;52.850;6.970;2023-12-28T08:51:41;14.40;80.80
60313;DHT22;46158;52.850;6.970;2023-12-28T08:54:07;14.40;80.90
60313;DHT22;46158;52.850;6.970;2023-12-28T08:56:34;14.50;81.00
60313;DHT22;46158;52.850;6.970;2023-12-28T08:59:00;14.50;81.00
60313;DHT22;46158;52.850;6.970;2023-12-28T09:01:25;14.50;81.10
60313;DHT22;46158;52.850;6.970;2023-12-28T09:03:52;14.50;81.30
60313;DHT22;46158;52.850;6.970;2023-12-28T09:06:19;14.60;81.40
60313;DHT22;46158;52.850;6.970;2023-12-28T09:08:47;14.60;81.50
60313;DHT22;46158;52.850;6.970;2023-12-28T09:11:13;14.60;81.70
60313;DHT22;46158;52.850;6.970;2023-12-28T09:13:39;14.60;81.70
60313;DHT22;46158;52.850;6.970;2023-12-28T09:16:07;14.70;81.90
60313;DHT22;46158;52.850;6.970;2023-12-28T09:18:33;14.70;82.00
60313;DHT22;46158;52.850;6.970;2023-12-28T09:20:59;14.70;82.00
60313;DHT22;46158;52.850;6.970;2023-12-28T09:23:24;14.70;82.10
60313;DHT22;46158;52.850;6.970;2023-12-28T09:25:50;14.80;82.20
60313;DHT22;46158;52.850;6.970;2023-12-28T09:28:16;14.80;82.20
60313;DHT22;46158;52.850;6.970;2023-12-28T09:30:41;14.80;82.30
60313;DHT22;46158;52.850;6.970;2023-12-28T09:33:07;14.90;82.40
60313;DHT22;46158;52.850;6.970;2023-12-28T09:35:33;14.90;82.40
60313;DHT22;46158;52.850;6.970;2023-12-28T09:38:00;14.80;82.30
60313;DHT22;46158;52.850;6.970;2023-12-28T09:40:25;14.90;82.40
60313;DHT22;46158;52.850;6.970;2023-12-28T09:45:29;14.90;82.30
60313;DHT22;46158;52.850;6.970;2023-12-28T09:47:55;14.90;83.00
60313;DHT22;46158;52.850;6.970;2023-12-28T09:50:21;15.00;82.40
60313;DHT22;46158;52.850;6.970;2023-12-28T09:52:49;15.00;82.40
60313;DHT22;46158;52.850;6.970;2023-12-28T09:55:14;15.00;82.40
60313;DHT22;46158;52.850;6.970;2023-12-28T09:57:41;15.00;82.40
60313;DHT22;46158;52.850;6.970;2023-12-28T10:00:07;15.00;82.40
60313;DHT22;46158;52.850;6.970;2023-12-28T10:02:33;15.00;83.00
60313;DHT22;46158;52.850;6.970;2023-12-28T10:04:59;15.00;82.20
60313;DHT22;46158;52.850;6.970;2023-12-28T10:07:25;15.10;82.20
60313;DHT22;46158;52.850;6.970;2023-12-28T10:09:52;15.10;82.30
60313;DHT22;46158;52.850;6.970;2023-12-28T10:12:18;15.10;82.10
60313;DHT22;46158;52.850;6.970;2023-12-28T10:14:43;15.10;82.10
60313;DHT22;46158;52.850;6.970;2023-12-28T10:17:09;15.10;82.00
60313;DHT22;46158;52.850;6.970;2023-12-28T10:19:36;15.10;81.90
60313;DHT22;46158;52.850;6.970;2023-12-28T10:22:02;15.10;81.90
60313;DHT22;46158;52.850;6.970;2023-12-28T10:24:27;15.10;81.80
60313;DHT22;46158;52.850;6.970;2023-12-28T10:26:53;15.10;81.70
60313;DHT22;46158;52.850;6.970;2023-12-28T10:29:19;15.20;81.70
60313;DHT22;46158;52.850;6.970;2023-12-28T10:31:44;15.10;81.60
60313;DHT22;46158;52.850;6.970;2023-12-28T10:34:14;15.20;81.60
60313;DHT22;46158;52.850;6.970;2023-12-28T10:36:40;15.20;81.50
60313;DHT22;46158;52.850;6.970;2023-12-28T10:39:11;15.20;81.50
60313;DHT22;46158;52.850;6.970;2023-12-28T10:41:41;15.20;81.50
60313;DHT22;46158;52.850;6.970;2023-12-28T10:44:11;15.20;81.50
60313;DHT22;46158;52.850;6.970;2023-12-28T10:46:40;15.20;81.40
60313;DHT22;46158;52.850;6.970;2023-12-28T10:49:12;15.20;81.50
60313;DHT22;46158;52.850;6.970;2023-12-28T10:51:42;15.20;81.50
60313;DHT22;46158;52.850;6.970;2023-12-28T10:54:15;15.20;81.60
60313;DHT22;46158;52.850;6.970;2023-12-28T10:56:50;15.30;81.60
60313;DHT22;46158;52.850;6.970;2023-12-28T11:01:59;15.30;80.50
60313;DHT22;46158;52.850;6.970;2023-12-28T11:04:46;15.30;80.40
60313;DHT22;46158;52.850;6.970;2023-12-28T11:07:14;15.30;80.50
60313;DHT22;46158;52.850;6.970;2023-12-28T11:09:54;15.30;80.70
60313;DHT22;46158;52.850;6.970;2023-12-28T11:12:20;15.30;80.70
60313;DHT22;46158;52.850;6.970;2023-12-28T11:14:47;15.20;80.70
60313;DHT22;46158;52.850;6.970;2023-12-28T11:17:16;15.30;80.80
60313;DHT22;46158;52.850;6.970;2023-12-28T11:19:42;15.20;80.70
60313;DHT22;46158;52.850;6.970;2023-12-28T11:22:08;15.20;80.70
60313;DHT22;46158;52.850;6.970;2023-12-28T11:24:34;15.30;80.80
60313;DHT22;46158;52.850;6.970;2023-12-28T11:27:00;15.30;80.80
60313;DHT22;46158;52.850;6.970;2023-12-28T11:29:29;15.30;80.80
60313;DHT22;46158;52.850;6.970;2023-12-28T11:31:57;15.30;80.80
60313;DHT22;46158;52.850;6.970;2023-12-28T11:34:28;15.30;80.80
60313;DHT22;46158;52.850;6.970;2023-12-28T11:36:56;15.30;80.70
60313;DHT22;46158;52.850;6.970;2023-12-28T11:39:35;15.30;80.70
60313;DHT22;46158;52.850;6.970;2023-12-28T11:42:07;15.30;80.70
60313;DHT22;46158;52.850;6.970;2023-12-28T11:44:42;15.30;80.80
60313;DHT22;46158;52.850;6.970;2023-12-28T11:47:30;15.30;80.70
60313;DHT22;46158;52.850;6.970;2023-12-28T11:50:06;15.30;80.70
60313;DHT22;46158;52.850;6.970;2023-12-28T11:52:32;15.30;80.70
60313;DHT22;46158;52.850;6.970;2023-12-28T11:55:00;15.30;80.70
60313;DHT22;46158;52.850;6.970;2023-12-28T11:57:26;15.30;80.70
60313;DHT22;46158;52.850;6.970;2023-12-28T11:59:59;15.30;80.70
60313;DHT22;46158;52.850;6.970;2023-12-28T12:02:25;15.30;80.60
60313;DHT22;46158;52.850;6.970;2023-12-28T12:04:55;15.30;80.70
60313;DHT22;46158;52.850;6.970;2023-12-28T12:07:24;15.30;80.60
60313;DHT22;46158;52.850;6.970;2023-12-28T12:09:55;15.30;80.60
60313;DHT22;46158;52.850;6.970;2023-12-28T12:12:21;15.30;80.60
60313;DHT22;46158;52.850;6.970;2023-12-28T12:14:46;15.30;80.60
60313;DHT22;46158;52.850;6.970;2023-12-28T12:17:12;15.30;80.60
60313;DHT22;46158;52.850;6.970;2023-12-28T12:19:38;15.30;80.60
60313;DHT22;46158;52.850;6.970;2023-12-28T12:22:03;15.30;80.50
60313;DHT22;46158;52.850;6.970;2023-12-28T12:24:31;15.30;80.60
60313;DHT22;46158;52.850;6.970;2023-12-28T12:26:57;15.30;80.50
60313;DHT22;46158;52.850;6.970;2023-12-28T12:29:23;15.30;80.50
60313;DHT22;46158;52.850;6.970;2023-12-28T12:31:48;15.30;80.50
60313;DHT22;46158;52.850;6.970;2023-12-28T12:34:17;15.30;80.50
60313;DHT22;46158;52.850;6.970;2023-12-28T12:36:43;15.30;80.50
60313;DHT22;46158;52.850;6.970;2023-12-28T12:39:13;15.30;80.50
60313;DHT22;46158;52.850;6.970;2023-12-28T12:41:38;15.30;80.40
60313;DHT22;46158;52.850;6.970;2023-12-28T12:44:04;15.30;80.50
60313;DHT22;46158;52.850;6.970;2023-12-28T12:46:30;15.30;80.50
60313;DHT22;46158;52.850;6.970;2023-12-28T12:48:58;15.30;80.50
60313;DHT22;46158;52.850;6.970;2023-12-28T12:51:25;15.30;80.40
60313;DHT22;46158;52.850;6.970;2023-12-28T12:53:59;15.30;80.50
60313;DHT22;46158;52.850;6.970;2023-12-28T12:56:29;15.30;80.40
60313;DHT22;46158;52.850;6.970;2023-12-28T12:58:55;15.40;80.50
60313;DHT22;46158;52.850;6.970;2023-12-28T13:01:22;15.30;80.50
60313;DHT22;46158;52.850;6.970;2023-12-28T13:03:48;15.30;80.50
60313;DHT22;46158;52.850;6.970;2023-12-28T13:06:13;15.30;80.50
60313;DHT22;46158;52.850;6.970;2023-12-28T13:08:39;15.30;80.50
60313;DHT22;46158;52.850;6.970;2023-12-28T13:11:05;15.30;80.40
60313;DHT22;46158;52.850;6.970;2023-12-28T13:13:35;15.30;80.40
60313;DHT22;46158;52.850;6.970;2023-12-28T13:16:02;15.30;80.50
60313;DHT22;46158;52.850;6.970;2023-12-28T13:18:27;15.30;80.40
60313;DHT22;46158;52.850;6.970;2023-12-28T13:20:53;15.30;80.40
60313;DHT22;46158;52.850;6.970;2023-12-28T13:23:19;15.30;80.40
60313;DHT22;46158;52.850;6.970;2023-12-28T13:25:44;15.30;80.50
60313;DHT22;46158;52.850;6.970;2023-12-28T13:28:10;15.30;80.40
60313;DHT22;46158;52.850;6.970;2023-12-28T13:30:37;15.30;80.40
60313;DHT22;46158;52.850;6.970;2023-12-28T13:33:04;15.30;80.40
60313;DHT22;46158;52.850;6.970;2023-12-28T13:35:30;15.30;80.40
60313;DHT22;46158;52.850;6.970;2023-12-28T13:37:56;15.30;80.40
60313;DHT22;46158;52.850;6.970;2023-12-28T13:40:21;15.30;80.40
60313;DHT22;46158;52.850;6.970;2023-12-28T13:42:47;15.30;80.40
60313;DHT22;46158;52.850;6.970;2023-12-28T13:45:13;15.30;80.40
60313;DHT22;46158;52.850;6.970;2023-12-28T13:47:38;15.30;80.40
60313;DHT22;46158;52.850;6.970;2023-12-28T13:50:05;15.30;80.40
60313;DHT22;46158;52.850;6.970;2023-12-28T13:52:32;15.30;80.40
60313;DHT22;46158;52.850;6.970;2023-12-28T13:54:57;15.30;80.40
60313;DHT22;46158;52.850;6.970;2023-12-28T13:57:23;15.30;80.30
60313;DHT22;46158;52.850;6.970;2023-12-28T13:59:48;15.40;80.30
60313;DHT22;46158;52.850;6.970;2023-12-28T14:02:14;15.30;79.70
60313;DHT22;46158;52.850;6.970;2023-12-28T14:04:40;15.30;79.70
60313;DHT22;46158;52.850;6.970;2023-12-28T14:07:05;15.40;79.90
60313;DHT22;46158;52.850;6.970;2023-12-28T14:09:31;15.30;79.80
60313;DHT22;46158;52.850;6.970;2023-12-28T14:11:58;15.30;79.90
60313;DHT22;46158;52.850;6.970;2023-12-28T14:14:24;15.30;80.00
60313;DHT22;46158;52.850;6.970;2023-12-28T14:16:50;15.30;80.00
60313;DHT22;46158;52.850;6.970;2023-12-28T14:19:15;15.30;80.10
60313;DHT22;46158;52.850;6.970;2023-12-28T14:21:42;15.30;80.00
60313;DHT22;46158;52.850;6.970;2023-12-28T14:24:09;15.30;80.00
60313;DHT22;46158;52.850;6.970;2023-12-28T14:26:40;15.30;80.10
60313;DHT22;46158;52.850;6.970;2023-12-28T14:29:07;15.30;80.10
60313;DHT22;46158;52.850;6.970;2023-12-28T14:31:33;15.30;80.10
60313;DHT22;46158;52.850;6.970;2023-12-28T14:33:59;15.30;80.20
60313;DHT22;46158;52.850;6.970;2023-12-28T14:36:31;15.30;80.20
60313;DHT22;46158;52.850;6.970;2023-12-28T14:39:02;15.30;80.20
60313;DHT22;46158;52.850;6.970;2023-12-28T14:41:30;15.30;80.30
60313;DHT22;46158;52.850;6.970;2023-12-28T14:43:56;15.30;80.30
60313;DHT22;46158;52.850;6.970;2023-12-28T14:46:25;15.30;80.40
60313;DHT22;46158;52.850;6.970;2023-12-28T14:48:51;15.30;80.40
60313;DHT22;46158;52.850;6.970;2023-12-28T14:51:17;15.30;80.40
60313;DHT22;46158;52.850;6.970;2023-12-28T14:53:42;15.30;80.40
60313;DHT22;46158;52.850;6.970;2023-12-28T14:56:08;15.30;80.40
60313;DHT22;46158;52.850;6.970;2023-12-28T14:58:34;15.30;80.40
60313;DHT22;46158;52.850;6.970;2023-12-28T15:01:00;15.40;80.50
60313;DHT22;46158;52.850;6.970;2023-12-28T15:03:25;15.30;80.40
60313;DHT22;46158;52.850;6.970;2023-12-28T15:05:51;15.30;80.40
60313;DHT22;46158;52.850;6.970;2023-12-28T15:08:17;15.30;80.40
60313;DHT22;46158;52.850;6.970;2023-12-28T15:10:43;15.40;80.40
60313;DHT22;46158;52.850;6.970;2023-12-28T15:13:10;15.40;80.40
60313;DHT22;46158;52.850;6.970;2023-12-28T15:15:36;15.40;80.40
60313;DHT22;46158;52.850;6.970;2023-12-28T15:18:02;15.40;80.40
60313;DHT22;46158;52.850;6.970;2023-12-28T15:20:28;15.40;80.30
60313;DHT22;46158;52.850;6.970;2023-12-28T15:22:55;15.40;80.30
60313;DHT22;46158;52.850;6.970;2023-12-28T15:25:21;15.40;80.30
60313;DHT22;46158;52.850;6.970;2023-12-28T15:27:47;15.40;80.30
60313;DHT22;46158;52.850;6.970;2023-12-28T15:30:13;15.40;80.30